sensor_id;sensor_type;location;lat;lon;timestamp;temperature;humidity
35325;DHT22;35135;47.510;19.036;2023-10-19T00:00:40;21.00;52.60
35325;DHT22;35135;47.510;19.036;2023-10-19T00:03:10;21.00;52.60
35325;DHT22;35135;47.510;19.036;2023-10-19T00:05:37;21.00;52.60
35325;DHT22;35135;47.510;19.036;2023-10-19T00:08:04;21.00;52.50
35325;DHT22;35135;47.510;19.036;2023-10-19T00:10:45;21.00;52.60
35325;DHT22;35135;47.510;19.036;2023-10-19T00:13:16;21.00;52.60
35325;DHT22;35135;47.510;19.036;2023-10-19T00:15:44;21.00;52.70
35325;DHT22;35135;47.510;19.036;2023-10-19T00:18:15;21.00;52.50
35325;DHT22;35135;47.510;19.036;2023-10-19T00:20:41;21.00;52.70
35325;DHT22;35135;47.510;19.036;2023-10-19T00:23:10;21.00;52.70
35325;DHT22;35135;47.510;19.036;2023-10-19T00:25:41;21.00;52.60
35325;DHT22;35135;47.510;19.036;2023-10-19T00:28:10;21.00;52.70
35325;DHT22;35135;47.510;19.036;2023-10-19T00:30:40;21.00;52.60
35325;DHT22;35135;47.510;19.036;2023-10-19T00:33:08;21.00;52.60
35325;DHT22;35135;47.510;19.036;2023-10-19T00:35:48;21.00;52.50
35325;DHT22;35135;47.510;19.036;2023-10-19T00:38:24;21.00;52.50
35325;DHT22;35135;47.510;19.036;2023-10-19T00:40:55;21.00;52.60
35325;DHT22;35135;47.510;19.036;2023-10-19T00:43:31;21.00;52.50
35325;DHT22;35135;47.510;19.036;2023-10-19T00:46:02;21.00;52.50
35325;DHT22;35135;47.510;19.036;2023-10-19T00:48:31;21.00;52.60
35325;DHT22;35135;47.510;19.036;2023-10-19T00:50:58;21.00;52.50
35325;DHT22;35135;47.510;19.036;2023-10-19T00:53:52;21.00;52.60
35325;DHT22;35135;47.510;19.036;2023-10-19T00:56:19;21.00;52.50
35325;DHT22;35135;47.510;19.036;2023-10-19T00:58:52;21.00;52.50
35325;DHT22;35135;47.510;19.036;2023-10-19T01:01:24;21.00;52.50
35325;DHT22;35135;47.510;19.036;2023-10-19T01:03:53;21.00;52.50
35325;DHT22;35135;47.510;19.036;2023-10-19T01:06:23;21.00;52.50
35325;DHT22;35135;47.510;19.036;2023-10-19T01:08:48;21.00;52.60
35325;DHT22;35135;47.510;19.036;2023-10-19T01:11:16;21.00;52.50
35325;DHT22;35135;47.510;19.036;2023-10-19T01:13:46;21.00;52.40
35325;DHT22;35135;47.510;19.036;2023-10-19T01:16:14;21.00;52.50
35325;DHT22;35135;47.510;19.036;2023-10-19T01:18:48;21.00;52.40
35325;DHT22;35135;47.510;19.036;2023-10-19T01:21:20;21.00;52.40
35325;DHT22;35135;47.510;19.036;2023-10-19T01:23:46;21.00;52.40
35325;DHT22;35135;47.510;19.036;2023-10-19T01:26:14;20.90;52.40
35325;DHT22;35135;47.510;19.036;2023-10-19T01:28:44;21.00;53.10
35325;DHT22;35135;47.510;19.036;2023-10-19T01:31:20;21.00;52.40
35325;DHT22;35135;47.510;19.036;2023-10-19T01:34:09;21.00;52.40
35325;DHT22;35135;47.510;19.036;2023-10-19T01:36:35;21.00;52.40
35325;DHT22;35135;47.510;19.036;2023-10-19T01:39:10;21.00;52.40
35325;DHT22;35135;47.510;19.036;2023-10-19T01:41:37;21.00;52.40
35325;DHT22;35135;47.510;19.036;2023-10-19T01:44:03;21.00;52.40
35325;DHT22;35135;47.510;19.036;2023-10-19T01:46:34;21.00;52.40
35325;DHT22;35135;47.510;19.036;2023-10-19T01:49:00;21.00;52.40
35325;DHT22;35135;47.510;19.036;2023-10-19T01:51:29;21.00;52.40
35325;DHT22;35135;47.510;19.036;2023-10-19T01:53:56;21.00;52.40
35325;DHT22;35135;47.510;19.036;2023-10-19T01:56:22;20.90;52.30
35325;DHT22;35135;47.510;19.036;2023-10-19T01:58:49;20.90;52.20
35325;DHT22;35135;47.510;19.036;2023-10-19T02:01:18;21.00;52.30
35325;DHT22;35135;47.510;19.036;2023-10-19T02:03:59;20.90;52.30
35325;DHT22;35135;47.510;19.036;2023-10-19T02:06:26;20.90;52.30
35325;DHT22;35135;47.510;19.036;2023-10-19T02:09:10;21.00;52.40
35325;DHT22;35135;47.510;19.036;2023-10-19T02:11:58;20.90;52.30
35325;DHT22;35135;47.510;19.036;2023-10-19T02:14:26;20.90;52.20
35325;DHT22;35135;47.510;19.036;2023-10-19T02:16:56;20.90;52.20
35325;DHT22;35135;47.510;19.036;2023-10-19T02:19:24;20.90;52.30
35325;DHT22;35135;47.510;19.036;2023-10-19T02:21:52;20.90;52.20
35325;DHT22;35135;47.510;19.036;2023-10-19T02:24:19;21.00;52.30
35325;DHT22;35135;47.510;19.036;2023-10-19T02:26:47;20.90;52.20
35325;DHT22;35135;47.510;19.036;2023-10-19T02:29:13;20.90;52.20
35325;DHT22;35135;47.510;19.036;2023-10-19T02:31:40;20.90;52.30
35325;DHT22;35135;47.510;19.036;2023-10-19T02:34:07;20.90;52.90
35325;DHT22;35135;47.510;19.036;2023-10-19T02:36:36;20.90;52.30
35325;DHT22;35135;47.510;19.036;2023-10-19T02:39:04;20.90;52.20
35325;DHT22;35135;47.510;19.036;2023-10-19T02:41:38;21.00;52.90
35325;DHT22;35135;47.510;19.036;2023-10-19T02:44:08;20.90;52.30
35325;DHT22;35135;47.510;19.036;2023-10-19T02:46:54;20.90;52.20
35325;DHT22;35135;47.510;19.036;2023-10-19T02:49:34;20.90;52.20
35325;DHT22;35135;47.510;19.036;2023-10-19T02:52:04;20.90;52.30
35325;DHT22;35135;47.510;19.036;2023-10-19T02:54:30;20.90;52.40
35325;DHT22;35135;47.510;19.036;2023-10-19T02:57:00;20.90;52.20
35325;DHT22;35135;47.510;19.036;2023-10-19T02:59:27;20.90;52.30
35325;DHT22;35135;47.510;19.036;2023-10-19T03:01:59;20.90;52.30
35325;DHT22;35135;47.510;19.036;2023-10-19T03:04:37;20.90;52.30
35325;DHT22;35135;47.510;19.036;2023-10-19T03:07:04;20.90;52.30
35325;DHT22;35135;47.510;19.036;2023-10-19T03:09:30;20.90;52.20
35325;DHT22;35135;47.510;19.036;2023-10-19T03:11:57;20.90;52.20
35325;DHT22;35135;47.510;19.036;2023-10-19T03:14:49;20.90;52.20
35325;DHT22;35135;47.510;19.036;2023-10-19T03:17:16;20.90;52.10
35325;DHT22;35135;47.510;19.036;2023-10-19T03:19:41;20.90;52.20
35325;DHT22;35135;47.510;19.036;2023-10-19T03:22:07;20.90;52.30
35325;DHT22;35135;47.510;19.036;2023-10-19T03:24:34;20.90;52.30
35325;DHT22;35135;47.510;19.036;2023-10-19T03:27:10;20.90;52.10
35325;DHT22;35135;47.510;19.036;2023-10-19T03:29:47;20.90;52.20
35325;DHT22;35135;47.510;19.036;2023-10-19T03:32:33;20.90;52.20
35325;DHT22;35135;47.510;19.036;2023-10-19T03:35:01;20.90;52.20
35325;DHT22;35135;47.510;19.036;2023-10-19T03:37:29;20.90;52.30
35325;DHT22;35135;47.510;19.036;2023-10-19T03:39:55;20.90;52.30
35325;DHT22;35135;47.510;19.036;2023-10-19T03:42:21;20.90;52.20
35325;DHT22;35135;47.510;19.036;2023-10-19T03:44:50;20.90;52.30
35325;DHT22;35135;47.510;19.036;2023-10-19T03:47:19;20.90;52.40
35325;DHT22;35135;47.510;19.036;2023-10-19T03:49:46;20.90;52.20
35325;DHT22;35135;47.510;19.036;2023-10-19T03:52:13;20.90;52.10
35325;DHT22;35135;47.510;19.036;2023-10-19T03:54:39;20.90;52.30
35325;DHT22;35135;47.510;19.036;2023-10-19T03:57:06;20.90;52.20
35325;DHT22;35135;47.510;19.036;2023-10-19T03:59:37;20.90;52.20
35325;DHT22;35135;47.510;19.036;2023-10-19T04:02:03;20.90;52.30
35325;DHT22;35135;47.510;19.036;2023-10-19T04:04:35;20.90;52.30
35325;DHT22;35135;47.510;19.036;2023-10-19T04:07:02;20.90;52.30
35325;DHT22;35135;47.510;19.036;2023-10-19T04:09:36;20.90;52.20
35325;DHT22;35135;47.510;19.036;2023-10-19T04:12:22;20.90;52.30
35325;DHT22;35135;47.510;19.036;2023-10-19T04:14:48;20.90;52.30
35325;DHT22;35135;47.510;19.036;2023-10-19T04:17:14;20.90;52.30
35325;DHT22;35135;47.510;19.036;2023-10-19T04:19:39;20.90;52.40
35325;DHT22;35135;47.510;19.036;2023-10-19T04:22:05;20.90;52.40
35325;DHT22;35135;47.510;19.036;2023-10-19T04:24:31;20.80;52.40
35325;DHT22;35135;47.510;19.036;2023-10-19T04:26:58;20.90;52.20
35325;DHT22;35135;47.510;19.036;2023-10-19T04:29:24;20.90;52.30
35325;DHT22;35135;47.510;19.036;2023-10-19T04:31:53;20.90;52.40
35325;DHT22;35135;47.510;19.036;2023-10-19T04:34:23;20.80;52.40
35325;DHT22;35135;47.510;19.036;2023-10-19T04:36:50;20.90;52.40
35325;DHT22;35135;47.510;19.036;2023-10-19T04:39:16;20.80;52.20
35325;DHT22;35135;47.510;19.036;2023-10-19T04:41:45;20.80;52.20
35325;DHT22;35135;47.510;19.036;2023-10-19T04:44:11;20.90;52.30
35325;DHT22;35135;47.510;19.036;2023-10-19T04:46:37;20.80;52.30
35325;DHT22;35135;47.510;19.036;2023-10-19T04:49:03;20.80;52.30
35325;DHT22;35135;47.510;19.036;2023-10-19T04:51:29;20.80;52.50
35325;DHT22;35135;47.510;19.036;2023-10-19T04:53:56;20.90;52.40
35325;DHT22;35135;47.510;19.036;2023-10-19T04:56:21;20.80;52.40
35325;DHT22;35135;47.510;19.036;2023-10-19T04:58:47;20.90;52.30
35325;DHT22;35135;47.510;19.036;2023-10-19T05:01:14;20.90;52.20
35325;DHT22;35135;47.510;19.036;2023-10-19T05:03:43;20.90;52.20
35325;DHT22;35135;47.510;19.036;2023-10-19T05:06:08;20.90;52.20
35325;DHT22;35135;47.510;19.036;2023-10-19T05:08:38;20.90;52.30
35325;DHT22;35135;47.510;19.036;2023-10-19T05:11:03;20.90;52.40
35325;DHT22;35135;47.510;19.036;2023-10-19T05:13:31;20.90;52.20
35325;DHT22;35135;47.510;19.036;2023-10-19T05:15:58;20.90;52.30
35325;DHT22;35135;47.510;19.036;2023-10-19T05:18:25;20.90;52.20
35325;DHT22;35135;47.510;19.036;2023-10-19T05:20:52;20.90;52.20
35325;DHT22;35135;47.510;19.036;2023-10-19T05:23:25;20.90;52.60
35325;DHT22;35135;47.510;19.036;2023-10-19T05:25:52;20.90;52.80
35325;DHT22;35135;47.510;19.036;2023-10-19T05:28:19;20.90;52.90
35325;DHT22;35135;47.510;19.036;2023-10-19T05:30:45;20.90;53.10
35325;DHT22;35135;47.510;19.036;2023-10-19T05:33:10;20.90;53.70
35325;DHT22;35135;47.510;19.036;2023-10-19T05:35:37;20.90;52.90
35325;DHT22;35135;47.510;19.036;2023-10-19T05:38:07;20.90;52.80
35325;DHT22;35135;47.510;19.036;2023-10-19T05:40:33;20.90;52.80
35325;DHT22;35135;47.510;19.036;2023-10-19T05:42:59;20.90;52.80
35325;DHT22;35135;47.510;19.036;2023-10-19T05:45:27;20.90;52.80
35325;DHT22;35135;47.510;19.036;2023-10-19T05:47:57;20.90;52.80
35325;DHT22;35135;47.510;19.036;2023-10-19T05:50:23;20.90;52.90
35325;DHT22;35135;47.510;19.036;2023-10-19T05:52:49;21.00;52.80
35325;DHT22;35135;47.510;19.036;2023-10-19T05:55:17;21.00;52.70
35325;DHT22;35135;47.510;19.036;2023-10-19T05:57:43;20.90;52.70
35325;DHT22;35135;47.510;19.036;2023-10-19T06:00:11;20.90;52.70
35325;DHT22;35135;47.510;19.036;2023-10-19T06:02:45;20.90;52.70
35325;DHT22;35135;47.510;19.036;2023-10-19T06:05:13;20.90;52.70
35325;DHT22;35135;47.510;19.036;2023-10-19T06:07:44;20.90;52.60
35325;DHT22;35135;47.510;19.036;2023-10-19T06:10:12;20.90;52.80
35325;DHT22;35135;47.510;19.036;2023-10-19T06:12:48;20.90;52.80
35325;DHT22;35135;47.510;19.036;2023-10-19T06:15:14;20.90;52.80
35325;DHT22;35135;47.510;19.036;2023-10-19T06:17:41;20.90;52.80
35325;DHT22;35135;47.510;19.036;2023-10-19T06:20:08;20.90;52.80
35325;DHT22;35135;47.510;19.036;2023-10-19T06:22:37;20.90;52.80
35325;DHT22;35135;47.510;19.036;2023-10-19T06:25:03;20.90;52.90
35325;DHT22;35135;47.510;19.036;2023-10-19T06:27:32;20.90;52.90
35325;DHT22;35135;47.510;19.036;2023-10-19T06:29:57;20.90;52.80
35325;DHT22;35135;47.510;19.036;2023-10-19T06:32:23;20.90;52.90
35325;DHT22;35135;47.510;19.036;2023-10-19T06:34:49;20.90;52.80
35325;DHT22;35135;47.510;19.036;2023-10-19T06:37:15;20.90;52.80
35325;DHT22;35135;47.510;19.036;2023-10-19T06:39:41;20.90;52.70
35325;DHT22;35135;47.510;19.036;2023-10-19T06:42:08;20.90;52.70
35325;DHT22;35135;47.510;19.036;2023-10-19T06:44:40;20.80;52.70
35325;DHT22;35135;47.510;19.036;2023-10-19T06:47:07;20.90;52.70
35325;DHT22;35135;47.510;19.036;2023-10-19T06:49:33;20.90;52.70
35325;DHT22;35135;47.510;19.036;2023-10-19T06:51:59;20.80;52.60
35325;DHT22;35135;47.510;19.036;2023-10-19T06:54:25;20.80;52.50
35325;DHT22;35135;47.510;19.036;2023-10-19T06:56:53;20.80;52.60
35325;DHT22;35135;47.510;19.036;2023-10-19T06:59:19;20.90;52.60
35325;DHT22;35135;47.510;19.036;2023-10-19T07:01:44;20.80;52.60
35325;DHT22;35135;47.510;19.036;2023-10-19T07:04:12;20.80;52.50
35325;DHT22;35135;47.510;19.036;2023-10-19T07:06:38;20.80;52.60
35325;DHT22;35135;47.510;19.036;2023-10-19T07:09:04;20.80;52.50
35325;DHT22;35135;47.510;19.036;2023-10-19T07:11:32;20.80;52.50
35325;DHT22;35135;47.510;19.036;2023-10-19T07:13:59;20.80;52.50
35325;DHT22;35135;47.510;19.036;2023-10-19T07:16:25;20.80;52.50
35325;DHT22;35135;47.510;19.036;2023-10-19T07:18:52;20.80;52.50
35325;DHT22;35135;47.510;19.036;2023-10-19T07:21:18;20.80;52.50
35325;DHT22;35135;47.510;19.036;2023-10-19T07:23:44;20.90;52.60
35325;DHT22;35135;47.510;19.036;2023-10-19T07:26:11;20.80;52.50
35325;DHT22;35135;47.510;19.036;2023-10-19T07:28:39;20.80;52.40
35325;DHT22;35135;47.510;19.036;2023-10-19T07:31:05;20.80;52.50
35325;DHT22;35135;47.510;19.036;2023-10-19T07:33:37;20.80;52.40
35325;DHT22;35135;47.510;19.036;2023-10-19T07:36:12;20.80;52.40
35325;DHT22;35135;47.510;19.036;2023-10-19T07:38:39;20.80;52.40
35325;DHT22;35135;47.510;19.036;2023-10-19T07:41:05;20.80;52.40
35325;DHT22;35135;47.510;19.036;2023-10-19T07:43:31;20.80;52.90
35325;DHT22;35135;47.510;19.036;2023-10-19T07:45:57;20.80;52.40
35325;DHT22;35135;47.510;19.036;2023-10-19T07:48:22;20.80;52.40
35325;DHT22;35135;47.510;19.036;2023-10-19T07:50:48;20.80;52.40
35325;DHT22;35135;47.510;19.036;2023-10-19T07:53:14;20.80;52.40
35325;DHT22;35135;47.510;19.036;2023-10-19T07:55:40;20.80;52.40
35325;DHT22;35135;47.510;19.036;2023-10-19T07:58:06;20.80;52.40
35325;DHT22;35135;47.510;19.036;2023-10-19T08:00:36;20.80;52.30
35325;DHT22;35135;47.510;19.036;2023-10-19T08:03:02;20.80;52.40
35325;DHT22;35135;47.510;19.036;2023-10-19T08:05:29;20.80;52.30
35325;DHT22;35135;47.510;19.036;2023-10-19T08:07:56;20.80;52.30
35325;DHT22;35135;47.510;19.036;2023-10-19T08:10:26;20.80;52.30
35325;DHT22;35135;47.510;19.036;2023-10-19T08:12:55;20.80;52.30
35325;DHT22;35135;47.510;19.036;2023-10-19T08:15:21;20.80;52.30
35325;DHT22;35135;47.510;19.036;2023-10-19T08:17:49;20.80;52.30
35325;DHT22;35135;47.510;19.036;2023-10-19T08:20:16;20.80;52.30
35325;DHT22;35135;47.510;19.036;2023-10-19T08:22:45;20.80;52.30
35325;DHT22;35135;47.510;19.036;2023-10-19T08:25:12;20.80;52.30
35325;DHT22;35135;47.510;19.036;2023-10-19T08:27:40;20.80;52.30
35325;DHT22;35135;47.510;19.036;2023-10-19T08:30:10;20.80;52.20
35325;DHT22;35135;47.510;19.036;2023-10-19T08:32:38;20.80;52.20
35325;DHT22;35135;47.510;19.036;2023-10-19T08:35:04;20.80;52.20
35325;DHT22;35135;47.510;19.036;2023-10-19T08:37:31;20.80;52.20
35325;DHT22;35135;47.510;19.036;2023-10-19T08:39:56;20.80;52.20
35325;DHT22;35135;47.510;19.036;2023-10-19T08:42:23;20.80;52.20
35325;DHT22;35135;47.510;19.036;2023-10-19T08:44:49;20.80;52.20
35325;DHT22;35135;47.510;19.036;2023-10-19T08:47:15;20.80;52.10
35325;DHT22;35135;47.510;19.036;2023-10-19T08:49:41;20.80;52.10
35325;DHT22;35135;47.510;19.036;2023-10-19T08:52:08;20.80;52.10
35325;DHT22;35135;47.510;19.036;2023-10-19T08:54:34;20.80;52.10
35325;DHT22;35135;47.510;19.036;2023-10-19T08:57:00;20.80;52.10
35325;DHT22;35135;47.510;19.036;2023-10-19T08:59:25;20.80;52.10
35325;DHT22;35135;47.510;19.036;2023-10-19T09:02:00;20.80;52.10
35325;DHT22;35135;47.510;19.036;2023-10-19T09:04:26;20.80;52.00
35325;DHT22;35135;47.510;19.036;2023-10-19T09:06:53;20.80;52.00
35325;DHT22;35135;47.510;19.036;2023-10-19T09:09:20;20.80;52.00
35325;DHT22;35135;47.510;19.036;2023-10-19T09:11:47;20.80;52.00
35325;DHT22;35135;47.510;19.036;2023-10-19T09:14:14;20.80;52.60
35325;DHT22;35135;47.510;19.036;2023-10-19T09:16:56;20.80;52.60
35325;DHT22;35135;47.510;19.036;2023-10-19T09:19:42;20.80;51.90
35325;DHT22;35135;47.510;19.036;2023-10-19T09:22:09;20.80;51.90
35325;DHT22;35135;47.510;19.036;2023-10-19T09:24:49;20.80;51.90
35325;DHT22;35135;47.510;19.036;2023-10-19T09:27:19;20.80;51.90
35325;DHT22;35135;47.510;19.036;2023-10-19T09:29:45;20.90;52.00
35325;DHT22;35135;47.510;19.036;2023-10-19T09:32:11;20.80;51.90
35325;DHT22;35135;47.510;19.036;2023-10-19T09:34:40;20.90;52.00
35325;DHT22;35135;47.510;19.036;2023-10-19T09:37:10;20.90;52.00
35325;DHT22;35135;47.510;19.036;2023-10-19T09:39:36;20.90;52.00
35325;DHT22;35135;47.510;19.036;2023-10-19T09:42:11;20.90;51.90
35325;DHT22;35135;47.510;19.036;2023-10-19T09:44:44;20.90;51.90
35325;DHT22;35135;47.510;19.036;2023-10-19T09:47:34;20.90;51.80
35325;DHT22;35135;47.510;19.036;2023-10-19T09:50:01;20.90;51.80
35325;DHT22;35135;47.510;19.036;2023-10-19T09:52:28;20.90;51.80
35325;DHT22;35135;47.510;19.036;2023-10-19T09:57:35;20.90;51.80
35325;DHT22;35135;47.510;19.036;2023-10-19T10:00:04;20.90;51.80
35325;DHT22;35135;47.510;19.036;2023-10-19T10:02:47;20.90;51.80
35325;DHT22;35135;47.510;19.036;2023-10-19T10:10:53;20.90;51.80
35325;DHT22;35135;47.510;19.036;2023-10-19T10:15:53;20.90;51.80
35325;DHT22;35135;47.510;19.036;2023-10-19T10:18:23;20.90;51.80
35325;DHT22;35135;47.510;19.036;2023-10-19T10:21:07;20.90;51.70
35325;DHT22;35135;47.510;19.036;2023-10-19T10:24:05;20.90;51.70
35325;DHT22;35135;47.510;19.036;2023-10-19T10:26:57;20.90;51.70
35325;DHT22;35135;47.510;19.036;2023-10-19T10:29:23;20.90;51.70
35325;DHT22;35135;47.510;19.036;2023-10-19T10:31:53;20.90;51.70
35325;DHT22;35135;47.510;19.036;2023-10-19T10:37:06;20.90;51.70
35325;DHT22;35135;47.510;19.036;2023-10-19T10:39:35;20.90;51.70
35325;DHT22;35135;47.510;19.036;2023-10-19T10:42:03;20.90;51.70
35325;DHT22;35135;47.510;19.036;2023-10-19T10:44:47;20.90;51.70
35325;DHT22;35135;47.510;19.036;2023-10-19T10:49:52;20.90;51.80
35325;DHT22;35135;47.510;19.036;2023-10-19T10:52:28;20.90;51.80
35325;DHT22;35135;47.510;19.036;2023-10-19T10:54:58;20.90;51.70
35325;DHT22;35135;47.510;19.036;2023-10-19T10:57:31;20.90;51.70
35325;DHT22;35135;47.510;19.036;2023-10-19T11:00:02;20.90;51.70
35325;DHT22;35135;47.510;19.036;2023-10-19T11:02:29;20.90;51.70
35325;DHT22;35135;47.510;19.036;2023-10-19T11:04:55;20.90;51.70
35325;DHT22;35135;47.510;19.036;2023-10-19T11:07:21;20.90;51.70
35325;DHT22;35135;47.510;19.036;2023-10-19T11:09:47;20.90;51.70
35325;DHT22;35135;47.510;19.036;2023-10-19T11:12:14;20.90;51.70
35325;DHT22;35135;47.510;19.036;2023-10-19T11:14:58;20.90;51.70
35325;DHT22;35135;47.510;19.036;2023-10-19T11:17:42;20.90;51.60
35325;DHT22;35135;47.510;19.036;2023-10-19T11:20:09;21.00;51.60
35325;DHT22;35135;47.510;19.036;2023-10-19T11:22:51;20.90;51.60
35325;DHT22;35135;47.510;19.036;2023-10-19T11:25:25;20.90;51.60
35325;DHT22;35135;47.510;19.036;2023-10-19T11:27:56;21.00;51.70
35325;DHT22;35135;47.510;19.036;2023-10-19T11:30:30;21.00;51.60
35325;DHT22;35135;47.510;19.036;2023-10-19T11:32:59;21.00;51.60
35325;DHT22;35135;47.510;19.036;2023-10-19T11:35:29;21.00;51.60
35325;DHT22;35135;47.510;19.036;2023-10-19T11:37:58;21.00;51.60
35325;DHT22;35135;47.510;19.036;2023-10-19T11:40:30;21.00;51.60
35325;DHT22;35135;47.510;19.036;2023-10-19T11:42:56;20.90;51.60
35325;DHT22;35135;47.510;19.036;2023-10-19T11:45:22;21.00;51.60
35325;DHT22;35135;47.510;19.036;2023-10-19T11:47:51;21.00;51.60
35325;DHT22;35135;47.510;19.036;2023-10-19T11:50:17;20.90;51.50
35325;DHT22;35135;47.510;19.036;2023-10-19T11:52:45;20.90;51.50
35325;DHT22;35135;47.510;19.036;2023-10-19T11:55:14;20.90;51.60
35325;DHT22;35135;47.510;19.036;2023-10-19T11:57:43;20.90;51.60
35325;DHT22;35135;47.510;19.036;2023-10-19T12:00:11;21.00;51.60
35325;DHT22;35135;47.510;19.036;2023-10-19T12:02:40;20.90;51.60
35325;DHT22;35135;47.510;19.036;2023-10-19T12:05:09;21.00;51.60
35325;DHT22;35135;47.510;19.036;2023-10-19T12:07:38;21.00;51.60
35325;DHT22;35135;47.510;19.036;2023-10-19T12:10:10;21.00;51.60
35325;DHT22;35135;47.510;19.036;2023-10-19T12:12:39;21.00;51.60
35325;DHT22;35135;47.510;19.036;2023-10-19T12:15:05;21.00;51.60
35325;DHT22;35135;47.510;19.036;2023-10-19T12:17:32;21.00;51.60
35325;DHT22;35135;47.510;19.036;2023-10-19T12:19:58;21.00;51.60
35325;DHT22;35135;47.510;19.036;2023-10-19T12:22:24;21.00;51.60
35325;DHT22;35135;47.510;19.036;2023-10-19T12:24:54;21.00;51.60
35325;DHT22;35135;47.510;19.036;2023-10-19T12:27:20;21.00;51.50
35325;DHT22;35135;47.510;19.036;2023-10-19T12:29:46;21.00;51.60
35325;DHT22;35135;47.510;19.036;2023-10-19T12:32:12;21.00;51.60
35325;DHT22;35135;47.510;19.036;2023-10-19T12:34:40;21.00;51.70
35325;DHT22;35135;47.510;19.036;2023-10-19T12:37:06;21.00;51.80
35325;DHT22;35135;47.510;19.036;2023-10-19T12:39:33;21.00;51.90
35325;DHT22;35135;47.510;19.036;2023-10-19T12:42:10;21.00;52.00
35325;DHT22;35135;47.510;19.036;2023-10-19T12:44:36;21.00;52.00
35325;DHT22;35135;47.510;19.036;2023-10-19T12:47:13;21.00;52.00
35325;DHT22;35135;47.510;19.036;2023-10-19T12:49:40;21.00;52.00
35325;DHT22;35135;47.510;19.036;2023-10-19T12:52:07;21.00;52.00
35325;DHT22;35135;47.510;19.036;2023-10-19T12:54:37;21.00;52.00
35325;DHT22;35135;47.510;19.036;2023-10-19T12:57:05;21.00;52.00
35325;DHT22;35135;47.510;19.036;2023-10-19T12:59:35;21.10;52.10
35325;DHT22;35135;47.510;19.036;2023-10-19T13:02:07;21.10;52.10
35325;DHT22;35135;47.510;19.036;2023-10-19T13:04:40;21.10;52.10
35325;DHT22;35135;47.510;19.036;2023-10-19T13:07:07;21.10;52.20
35325;DHT22;35135;47.510;19.036;2023-10-19T13:09:33;21.10;52.20
35325;DHT22;35135;47.510;19.036;2023-10-19T13:12:01;21.10;52.20
35325;DHT22;35135;47.510;19.036;2023-10-19T13:14:27;21.10;52.30
35325;DHT22;35135;47.510;19.036;2023-10-19T13:16:53;21.10;52.30
35325;DHT22;35135;47.510;19.036;2023-10-19T13:19:20;21.10;52.20
35325;DHT22;35135;47.510;19.036;2023-10-19T13:21:49;21.10;52.40
35325;DHT22;35135;47.510;19.036;2023-10-19T13:24:16;21.10;52.20
35325;DHT22;35135;47.510;19.036;2023-10-19T13:26:43;21.10;52.20
35325;DHT22;35135;47.510;19.036;2023-10-19T13:29:12;21.20;52.10
35325;DHT22;35135;47.510;19.036;2023-10-19T13:31:38;21.10;52.10
35325;DHT22;35135;47.510;19.036;2023-10-19T13:34:04;21.10;51.70
35325;DHT22;35135;47.510;19.036;2023-10-19T13:36:36;21.10;52.10
35325;DHT22;35135;47.510;19.036;2023-10-19T13:39:02;21.10;52.30
35325;DHT22;35135;47.510;19.036;2023-10-19T13:41:28;21.00;52.20
35325;DHT22;35135;47.510;19.036;2023-10-19T13:43:54;21.00;52.10
35325;DHT22;35135;47.510;19.036;2023-10-19T13:46:21;21.00;52.00
35325;DHT22;35135;47.510;19.036;2023-10-19T13:48:49;21.00;52.00
35325;DHT22;35135;47.510;19.036;2023-10-19T13:51:18;21.00;52.10
35325;DHT22;35135;47.510;19.036;2023-10-19T13:53:44;21.10;52.20
35325;DHT22;35135;47.510;19.036;2023-10-19T13:56:10;21.00;52.20
35325;DHT22;35135;47.510;19.036;2023-10-19T13:58:37;21.10;52.20
35325;DHT22;35135;47.510;19.036;2023-10-19T14:01:06;21.10;52.30
35325;DHT22;35135;47.510;19.036;2023-10-19T14:03:32;21.10;52.30
35325;DHT22;35135;47.510;19.036;2023-10-19T14:05:57;21.10;52.30
35325;DHT22;35135;47.510;19.036;2023-10-19T14:08:23;21.10;52.30
35325;DHT22;35135;47.510;19.036;2023-10-19T14:10:49;21.10;52.40
35325;DHT22;35135;47.510;19.036;2023-10-19T14:13:14;21.10;52.30
35325;DHT22;35135;47.510;19.036;2023-10-19T14:15:41;21.10;52.60
35325;DHT22;35135;47.510;19.036;2023-10-19T14:18:08;21.10;52.30
35325;DHT22;35135;47.510;19.036;2023-10-19T14:20:34;21.10;52.30
35325;DHT22;35135;47.510;19.036;2023-10-19T14:23:01;21.10;52.40
35325;DHT22;35135;47.510;19.036;2023-10-19T14:25:28;21.10;52.50
35325;DHT22;35135;47.510;19.036;2023-10-19T14:27:55;21.10;52.50
35325;DHT22;35135;47.510;19.036;2023-10-19T14:30:32;21.10;52.50
35325;DHT22;35135;47.510;19.036;2023-10-19T14:32:58;21.10;52.50
35325;DHT22;35135;47.510;19.036;2023-10-19T14:35:24;21.00;52.50
35325;DHT22;35135;47.510;19.036;2023-10-19T14:37:55;21.00;52.40
35325;DHT22;35135;47.510;19.036;2023-10-19T14:40:26;21.00;52.30
35325;DHT22;35135;47.510;19.036;2023-10-19T14:42:53;21.10;52.30
35325;DHT22;35135;47.510;19.036;2023-10-19T14:45:21;21.10;52.40
35325;DHT22;35135;47.510;19.036;2023-10-19T14:47:52;21.10;52.30
35325;DHT22;35135;47.510;19.036;2023-10-19T14:50:18;21.10;52.30
35325;DHT22;35135;47.510;19.036;2023-10-19T14:52:46;21.10;52.30
35325;DHT22;35135;47.510;19.036;2023-10-19T14:55:13;21.10;52.30
35325;DHT22;35135;47.510;19.036;2023-10-19T14:57:43;21.10;52.30
35325;DHT22;35135;47.510;19.036;2023-10-19T15:00:12;21.10;52.30
35325;DHT22;35135;47.510;19.036;2023-10-19T15:02:45;21.10;52.40
35325;DHT22;35135;47.510;19.036;2023-10-19T15:05:14;21.10;52.40
35325;DHT22;35135;47.510;19.036;2023-10-19T15:07:51;21.10;52.40
35325;DHT22;35135;47.510;19.036;2023-10-19T15:10:19;21.20;52.40
35325;DHT22;35135;47.510;19.036;2023-10-19T15:12:45;21.20;52.40
35325;DHT22;35135;47.510;19.036;2023-10-19T15:15:10;21.20;52.50
35325;DHT22;35135;47.510;19.036;2023-10-19T15:17:40;21.10;52.50
35325;DHT22;35135;47.510;19.036;2023-10-19T15:20:07;21.20;52.40
35325;DHT22;35135;47.510;19.036;2023-10-19T15:22:38;21.20;52.50
35325;DHT22;35135;47.510;19.036;2023-10-19T15:25:05;21.20;52.40
35325;DHT22;35135;47.510;19.036;2023-10-19T15:27:36;21.10;52.40
35325;DHT22;35135;47.510;19.036;2023-10-19T15:30:03;21.20;52.50
35325;DHT22;35135;47.510;19.036;2023-10-19T15:32:31;21.20;52.50
35325;DHT22;35135;47.510;19.036;2023-10-19T15:34:57;21.20;52.50
35325;DHT22;35135;47.510;19.036;2023-10-19T15:37:22;21.20;52.50
35325;DHT22;35135;47.510;19.036;2023-10-19T15:39:49;21.20;52.50
35325;DHT22;35135;47.510;19.036;2023-10-19T15:42:15;21.20;52.50